Time;durP1;ratioP1;P1;durP2;ratioP2;P2;SDS_P1;SDS_P2;PMS_P1;PMS_P2;Temp;Humidity;BMP_temperature;BMP_pressure;BME280_temperature;BME280_humidity;BME280_pressure;Samples;Min_cycle;Max_cycle;Signal;HPM_P1;HPM_P2
2022/02/20 00:00:55;;;;;;;5.63;1.23;;;;;;;4.97;90.98;100768.63;2017416;29;20129;-61
2022/02/20 00:01:55;;;;;;;6.23;1.67;;;;;;;4.84;90.93;100763.69;2010327;29;20109;-61
2022/02/20 00:02:56;;;;;;;7.13;2.00;;;;;;;4.73;92.11;100770.81;2017392;29;20042;-59
2022/02/20 00:03:56;;;;;;;3.43;1.37;;;;;;;4.86;91.89;100771.41;2017323;29;20056;-60
2022/02/20 00:04:56;;;;;;;3.90;1.17;;;;;;;4.75;91.70;100772.47;2009680;29;20519;-62
2022/02/20 00:05:57;;;;;;;6.33;1.10;;;;;;;4.70;92.08;100779.47;2009717;29;20123;-60
2022/02/20 00:06:57;;;;;;;5.40;1.10;;;;;;;4.81;91.59;100789.59;2010290;29;20398;-59
2022/02/20 00:07:57;;;;;;;5.90;1.10;;;;;;;4.82;90.80;100788.72;2017264;29;20483;-60
2022/02/20 00:08:58;;;;;;;3.80;1.37;;;;;;;4.81;90.76;100789.59;2017327;29;20060;-59
2022/02/20 00:09:58;;;;;;;7.43;1.30;;;;;;;4.72;90.97;100784.63;2010407;29;20523;-60
2022/02/20 00:10:58;;;;;;;6.37;1.10;;;;;;;4.78;90.40;100797.41;2010359;29;20068;-61
2022/02/20 00:11:59;;;;;;;4.03;0.60;;;;;;;4.83;90.68;100777.47;2010472;29;20021;-62
2022/02/20 00:13:00;;;;;;;1.90;0.60;;;;;;;4.93;89.05;100785.06;2010316;29;20499;-60
2022/02/20 00:14:00;;;;;;;9.88;1.52;;;;;;;5.00;89.24;100790.09;2010345;29;20037;-60
2022/02/20 00:15:00;;;;;;;5.90;1.77;;;;;;;5.05;89.40;100797.75;2010364;29;20040;-60
2022/02/20 00:16:01;;;;;;;2.70;0.87;;;;;;;4.92;89.02;100791.13;2017243;29;20029;-61
2022/02/20 00:17:01;;;;;;;3.00;0.90;;;;;;;4.90;89.04;100811.84;2017451;29;20112;-60
2022/02/20 00:18:03;;;;;;;2.87;0.70;;;;;;;4.91;89.75;100805.78;2009523;29;20289;-60
2022/02/20 00:19:03;;;;;;;4.50;1.58;;;;;;;4.83;89.09;100818.03;2009691;29;20069;-61
2022/02/20 00:20:04;;;;;;;5.63;0.90;;;;;;;4.76;89.78;100823.28;2010257;29;20029;-62
2022/02/20 00:21:05;;;;;;;5.20;1.02;;;;;;;4.67;90.21;100827.78;2010263;29;20828;-61
2022/02/20 00:22:05;;;;;;;1.75;0.60;;;;;;;4.90;89.15;100830.78;2010217;29;20081;-60
2022/02/20 00:23:06;;;;;;;3.63;1.07;;;;;;;4.86;89.45;100829.16;2010262;29;20032;-62
2022/02/20 00:24:06;;;;;;;3.77;0.57;;;;;;;4.66;90.07;100816.59;2010283;29;20030;-63
2022/02/20 00:25:07;;;;;;;3.73;0.80;;;;;;;4.58;91.11;100834.00;2010247;29;20040;-60
2022/02/20 00:26:08;;;;;;;;;;;;;;;4.75;91.70;100825.91;2009969;29;20136;-61
2022/02/20 00:27:08;;;;;;;1.90;0.50;;;;;;;4.68;90.82;100829.50;2009707;29;19916;-60
2022/02/20 00:28:08;;;;;;;21.57;2.00;;;;;;;4.84;89.92;100843.00;2010309;29;20030;-61
2022/02/20 00:29:09;;;;;;;6.10;2.33;;;;;;;4.83;90.41;100841.28;2010229;29;20036;-60
2022/02/20 00:30:09;;;;;;;8.50;1.50;;;;;;;5.05;88.71;100839.16;2010197;29;20479;-61
2022/02/20 00:31:10;;;;;;;4.75;0.82;;;;;;;4.96;88.98;100847.09;2010205;29;20376;-61
2022/02/20 00:32:10;;;;;;;3.03;0.60;;;;;;;5.07;88.66;100832.22;2010080;29;20468;-59
2022/02/20 00:33:11;;;;;;;11.63;1.13;;;;;;;5.09;88.78;100856.31;2010150;29;20047;-60
2022/02/20 00:34:12;;;;;;;6.43;0.98;;;;;;;4.77;89.55;100862.94;2010177;29;20034;-63
2022/02/20 00:35:12;;;;;;;4.90;0.90;;;;;;;4.77;90.03;100855.19;2010242;29;20453;-62
2022/02/20 00:36:12;;;;;;;5.53;1.00;;;;;;;4.73;90.26;100861.28;2010259;29;20018;-62
2022/02/20 00:37:13;;;;;;;6.67;1.57;;;;;;;4.66;90.76;100862.28;2010286;29;20472;-62
2022/02/20 00:38:13;;;;;;;6.53;1.40;;;;;;;4.57;91.39;100858.09;2010292;29;20479;-62
2022/02/20 00:39:14;;;;;;;7.67;1.27;;;;;;;4.66;90.84;100867.44;2010212;29;20037;-60
2022/02/20 00:40:14;;;;;;;5.07;0.83;;;;;;;4.63;91.71;100876.94;2010233;29;20072;-61
2022/02/20 00:41:14;;;;;;;3.03;0.93;;;;;;;4.66;91.18;100867.44;2017229;29;20047;-61
2022/02/20 00:42:15;;;;;;;2.87;0.60;;;;;;;4.64;92.16;100875.22;2017239;29;20025;-60
2022/02/20 00:43:16;;;;;;;5.43;1.07;;;;;;;4.68;91.79;100876.88;2010210;29;20037;-61
2022/02/20 00:44:16;;;;;;;4.95;1.05;;;;;;;4.71;90.89;100873.38;2010172;29;20025;-61
2022/02/20 00:45:17;;;;;;;3.07;1.00;;;;;;;4.90;90.48;100872.16;2017097;29;20058;-61
2022/02/20 00:46:17;;;;;;;4.80;1.10;;;;;;;4.75;90.21;100887.97;2017148;29;20032;-62
2022/02/20 00:47:18;;;;;;;4.23;0.60;;;;;;;4.71;91.34;100881.13;2010037;29;20488;-62
2022/02/20 00:48:20;;;;;;;7.80;0.80;;;;;;;4.55;91.50;100885.72;2010174;29;20036;-61
2022/02/20 00:49:21;;;;;;;5.63;0.90;;;;;;;4.63;91.16;100897.63;2010169;29;20113;-61
2022/02/20 00:50:22;;;;;;;5.07;1.03;;;;;;;4.48;91.60;100885.81;2010252;29;20510;-61
2022/02/20 00:51:23;;;;;;;6.90;0.60;;;;;;;4.48;92.33;100890.16;2010167;29;20325;-62
2022/02/20 00:52:23;;;;;;;4.60;0.70;;;;;;;4.35;92.66;100895.50;2010184;29;20029;-60
2022/02/20 00:53:26;;;;;;;5.47;0.97;;;;;;;4.33;93.27;100866.25;2011466;29;20082;-61
2022/02/20 00:54:26;;;;;;;4.70;0.57;;;;;;;4.48;93.59;100887.56;2011575;29;20466;-60
2022/02/20 00:55:26;;;;;;;4.53;0.63;;;;;;;4.60;91.91;100883.91;2011615;29;20026;-60
2022/02/20 00:56:27;;;;;;;4.13;0.80;;;;;;;4.45;92.49;100893.63;2011609;29;20037;-60
2022/02/20 00:57:27;;;;;;;3.87;1.23;;;;;;;4.37;93.15;100898.91;2011430;29;20029;-60
2022/02/20 00:58:27;;;;;;;2.17;1.40;;;;;;;4.38;94.04;100894.63;2011527;29;20033;-61
2022/02/20 00:59:27;;;;;;;5.40;0.80;;;;;;;4.42;93.54;100898.84;2011523;29;20035;-60
2022/02/20 01:00:28;;;;;;;5.90;0.70;;;;;;;4.37;94.30;100898.91;2011508;29;20081;-60
2022/02/20 01:01:29;;;;;;;3.83;0.50;;;;;;;4.43;94.20;100907.44;2011571;29;20021;-59
2022/02/20 01:02:29;;;;;;;4.53;0.80;;;;;;;4.46;93.63;100902.22;2011508;29;20041;-60
2022/02/20 01:03:30;;;;;;;6.67;1.77;;;;;;;4.50;93.91;100898.72;2011517;29;20040;-60
2022/02/20 01:04:30;;;;;;;3.40;1.27;;;;;;;4.55;94.26;100901.25;2011487;29;20038;-60
2022/02/20 01:05:31;;;;;;;10.13;1.00;;;;;;;4.43;94.48;100902.28;2010811;29;20061;-61
2022/02/20 01:06:31;;;;;;;2.97;0.90;;;;;;;4.32;93.77;100905.03;2010893;29;20038;-60
2022/02/20 01:07:32;;;;;;;4.80;1.60;;;;;;;4.31;94.60;100909.34;2011520;29;20026;-59
2022/02/20 01:08:32;;;;;;;3.88;0.75;;;;;;;4.33;95.33;100912.75;2011510;29;20018;-60
2022/02/20 01:09:33;;;;;;;4.00;0.93;;;;;;;4.46;94.16;100915.16;2011485;29;20028;-62
2022/02/20 01:10:33;;;;;;;4.37;0.60;;;;;;;4.37;94.61;100909.25;2011547;29;20025;-61
2022/02/20 01:11:33;;;;;;;4.80;1.07;;;;;;;4.38;95.63;100920.47;2011457;29;20054;-62
2022/02/20 01:12:34;;;;;;;6.47;0.73;;;;;;;4.33;94.27;100910.19;2011526;29;20167;-60
2022/02/20 01:13:34;;;;;;;4.70;1.00;;;;;;;4.34;94.11;100922.22;2011472;29;20029;-61
2022/02/20 01:14:34;;;;;;;5.10;0.70;;;;;;;4.28;93.85;100919.75;2011602;29;20131;-60
2022/02/20 01:15:34;;;;;;;4.67;0.63;;;;;;;4.34;94.66;100924.78;2011541;29;20061;-60
2022/02/20 01:16:35;;;;;;;2.90;0.60;;;;;;;4.42;95.93;100921.25;2011552;29;20040;-59
2022/02/20 01:17:35;;;;;;;3.53;0.90;;;;;;;4.36;93.97;100917.88;2018508;29;20119;-60
2022/02/20 01:18:35;;;;;;;3.63;0.77;;;;;;;4.29;94.21;100923.16;2018623;29;20057;-61
2022/02/20 01:19:36;;;;;;;2.93;0.60;;;;;;;4.36;94.62;100924.78;2011437;29;20510;-60
2022/02/20 01:20:37;;;;;;;2.95;0.47;;;;;;;4.47;94.27;100925.47;2011489;29;20064;-60
2022/02/20 01:21:37;;;;;;;3.33;0.97;;;;;;;4.54;94.63;100927.94;2011406;29;20120;-60
2022/02/20 01:22:38;;;;;;;4.05;0.63;;;;;;;4.40;94.58;100923.00;2011458;29;20103;-60
2022/02/20 01:23:38;;;;;;;5.35;0.68;;;;;;;4.25;94.88;100938.69;2011420;29;20029;-60
2022/02/20 01:24:39;;;;;;;7.47;1.10;;;;;;;4.22;95.17;100935.31;2011431;29;20056;-60
2022/02/20 01:25:39;;;;;;;1.30;0.73;;;;;;;4.23;95.53;100942.19;2011464;29;20021;-61
2022/02/20 01:26:39;;;;;;;3.20;0.60;;;;;;;4.19;96.08;100941.38;2011432;29;20290;-60
2022/02/20 01:27:39;;;;;;;6.47;0.93;;;;;;;4.36;96.31;100933.41;2011408;29;20451;-60
2022/02/20 01:28:40;;;;;;;4.60;0.93;;;;;;;4.41;96.67;100929.88;2011369;29;20314;-60
2022/02/20 01:29:40;;;;;;;2.87;0.73;;;;;;;4.34;94.67;100937.72;2011371;29;20032;-60
2022/02/20 01:30:40;;;;;;;3.27;0.80;;;;;;;4.28;95.66;100926.63;2011446;29;20029;-59
2022/02/20 01:31:41;;;;;;;5.53;0.73;;;;;;;4.24;95.05;100933.56;2011464;29;20416;-60
2022/02/20 01:32:41;;;;;;;7.10;0.73;;;;;;;4.23;94.66;100931.84;2011390;29;20372;-61
2022/02/20 01:33:41;;;;;;;4.77;0.90;;;;;;;4.22;95.10;100931.00;2018140;29;20047;-62
2022/02/20 01:34:42;;;;;;;3.80;0.60;;;;;;;4.29;95.18;100936.94;2010681;29;20025;-59
2022/02/20 01:35:42;;;;;;;3.60;0.80;;;;;;;4.36;94.97;100928.22;2010769;29;20076;-61
2022/02/20 01:36:42;;;;;;;3.90;0.60;;;;;;;4.34;93.88;100944.59;2011278;29;20109;-61
2022/02/20 01:37:42;;;;;;;3.50;0.90;;;;;;;4.35;94.67;100936.84;2011306;29;20033;-60
2022/02/20 01:38:43;;;;;;;5.90;1.47;;;;;;;4.24;94.27;100951.63;2011284;29;20040;-60
2022/02/20 01:39:43;;;;;;;1.50;0.40;;;;;;;4.33;95.12;100948.94;2011322;29;20073;-60
2022/02/20 01:40:45;;;;;;;2.53;0.70;;;;;;;4.24;94.80;100949.06;2011312;29;20029;-60
2022/02/20 01:41:45;;;;;;;0.95;0.43;;;;;;;4.21;94.64;100949.13;2011243;29;20029;-61
2022/02/20 01:42:45;;;;;;;3.87;0.70;;;;;;;4.12;94.66;100956.13;2011335;29;20030;-60
2022/02/20 01:43:46;;;;;;;2.23;0.50;;;;;;;4.10;94.69;100957.84;2011297;29;20284;-60
2022/02/20 01:44:46;;;;;;;2.22;0.63;;;;;;;4.27;96.39;100954.19;2011312;29;20394;-60
2022/02/20 01:45:47;;;;;;;4.20;0.60;;;;;;;4.12;94.59;100950.97;2011265;29;20104;-60
2022/02/20 01:46:49;;;;;;;3.33;1.10;;;;;;;4.04;94.55;100959.69;2018286;29;20017;-61
2022/02/20 01:47:50;;;;;;;6.20;1.10;;;;;;;4.22;95.53;100966.31;2017907;29;20053;-60
2022/02/20 01:48:50;;;;;;;4.83;0.80;;;;;;;4.21;94.53;100965.44;2011302;29;20121;-60
2022/02/20 01:49:51;;;;;;;3.63;0.60;;;;;;;4.10;94.27;100963.03;2011255;29;20547;-61
2022/02/20 01:50:52;;;;;;;3.67;1.10;;;;;;;4.06;94.48;100971.69;2011283;29;20423;-61
2022/02/20 01:51:52;;;;;;;6.68;0.93;;;;;;;4.04;94.93;100957.94;2011162;29;20111;-60
2022/02/20 01:52:52;;;;;;;4.20;1.33;;;;;;;3.99;94.31;100977.81;2018091;29;20041;-60
2022/02/20 01:53:52;;;;;;;3.53;0.57;;;;;;;3.95;94.47;100974.41;2018287;29;20108;-62
2022/02/20 01:54:53;;;;;;;2.73;0.50;;;;;;;3.94;94.52;100971.84;2011168;29;20076;-60
2022/02/20 01:55:53;;;;;;;2.53;0.70;;;;;;;4.04;95.58;100982.91;2011153;29;20424;-59
2022/02/20 01:56:55;;;;;;;1.47;0.50;;;;;;;4.17;95.41;100978.44;2011186;29;20503;-60
2022/02/20 01:57:55;;;;;;;6.50;2.10;;;;;;;4.11;94.27;100972.47;2011001;29;20112;-61
2022/02/20 01:58:56;;;;;;;2.63;0.67;;;;;;;4.03;94.38;100983.81;2011094;29;20448;-60
2022/02/20 01:59:59;;;;;;;4.43;0.50;;;;;;;4.06;95.21;100979.44;2011153;29;20104;-59
2022/02/20 02:01:00;;;;;;;3.50;0.40;;;;;;;4.06;94.60;100987.19;2011348;29;20076;-60
2022/02/20 02:02:00;;;;;;;10.32;2.95;;;;;;;4.19;94.36;100981.84;2010971;29;20030;-60
2022/02/20 02:03:01;;;;;;;2.37;0.87;;;;;;;4.15;93.82;100975.88;2011059;29;20395;-60
2022/02/20 02:04:01;;;;;;;6.93;0.90;;;;;;;4.01;94.04;100978.66;2010555;29;20113;-60
2022/02/20 02:05:03;;;;;;;10.33;1.20;;;;;;;3.93;94.09;100975.31;2010687;29;20033;-60
2022/02/20 02:06:03;;;;;;;1.92;0.40;;;;;;;3.94;94.49;100975.28;2010981;29;20388;-61
2022/02/20 02:07:04;;;;;;;2.88;0.45;;;;;;;3.91;94.64;100971.88;2018108;29;20036;-60
2022/02/20 02:08:04;;;;;;;4.80;0.87;;;;;;;3.97;95.19;100967.50;2018156;29;20047;-60
2022/02/20 02:09:05;;;;;;;2.20;0.30;;;;;;;3.99;96.13;100970.91;2011166;29;20052;-60
2022/02/20 02:10:05;;;;;;;2.30;0.50;;;;;;;3.92;94.58;100974.44;2011045;29;20806;-60
2022/02/20 02:11:08;;;;;;;3.42;0.93;;;;;;;3.89;94.50;100973.63;2011013;29;20034;-60
2022/02/20 02:12:08;;;;;;;7.15;2.08;;;;;;;3.86;94.89;100972.81;2011018;29;20069;-60
2022/02/20 02:13:09;;;;;;;3.28;0.60;;;;;;;3.88;95.61;100970.19;2011041;29;20025;-60
2022/02/20 02:14:09;;;;;;;5.50;0.80;;;;;;;3.85;95.30;100965.06;2011048;29;20551;-60
2022/02/20 02:15:12;;;;;;;4.67;1.00;;;;;;;3.85;95.09;100965.94;2011009;29;20158;-61
2022/02/20 02:16:12;;;;;;;4.38;0.70;;;;;;;3.83;94.16;100959.91;2010992;29;20033;-61
2022/02/20 02:17:13;;;;;;;5.80;0.80;;;;;;;3.84;94.74;100961.63;2011058;29;20154;-61
2022/02/20 02:18:13;;;;;;;2.13;0.43;;;;;;;4.02;95.25;100964.00;2010971;29;20125;-61
2022/02/20 02:19:13;;;;;;;2.00;0.60;;;;;;;3.96;94.43;100964.94;2010985;29;20195;-61
2022/02/20 02:20:13;;;;;;;2.57;0.43;;;;;;;3.96;94.48;100976.13;2018051;29;20025;-61
2022/02/20 02:21:14;;;;;;;6.10;1.30;;;;;;;4.00;93.88;100979.50;2018086;29;20041;-61
2022/02/20 02:22:17;;;;;;;2.40;0.60;;;;;;;4.03;93.50;100976.06;2010937;29;20034;-61
2022/02/20 02:23:19;;;;;;;1.17;0.43;;;;;;;4.05;93.34;100975.16;2010923;29;20305;-61
2022/02/20 02:24:19;;;;;;;2.17;0.55;;;;;;;4.04;94.58;100967.44;2010959;29;20047;-60
2022/02/20 02:25:19;;;;;;;2.93;0.70;;;;;;;3.96;93.50;100970.09;2010959;29;20033;-61
2022/02/20 02:26:20;;;;;;;1.70;0.40;;;;;;;3.96;94.67;100962.34;2010924;29;20085;-60
2022/02/20 02:27:21;;;;;;;6.50;0.73;;;;;;;3.92;94.21;100965.84;2010877;29;20030;-60
2022/02/20 02:28:21;;;;;;;7.63;0.77;;;;;;;3.89;93.98;100961.56;2010850;29;20047;-61
2022/02/20 02:29:22;;;;;;;4.37;0.60;;;;;;;3.85;94.31;100963.34;2010913;29;20122;-60
2022/02/20 02:30:22;;;;;;;3.13;0.83;;;;;;;3.81;94.43;100964.25;2010875;29;20065;-62
2022/02/20 02:31:22;;;;;;;1.80;0.47;;;;;;;3.80;94.30;100975.44;2010915;29;20024;-62
2022/02/20 02:32:23;;;;;;;2.10;0.53;;;;;;;3.78;94.11;100972.03;2010873;29;20479;-61
2022/02/20 02:33:28;;;;;;;6.00;0.50;;;;;;;3.84;94.76;100971.13;2010150;29;20448;-60
2022/02/20 02:34:28;;;;;;;2.67;0.30;;;;;;;3.89;95.18;100968.47;2010220;29;20577;-60
2022/02/20 02:35:28;;;;;;;4.00;1.17;;;;;;;3.82;95.04;100965.97;2017925;29;20080;-61
2022/02/20 02:36:28;;;;;;;5.20;1.30;;;;;;;3.82;95.41;100968.53;2017951;29;20070;-61
2022/02/20 02:37:29;;;;;;;4.97;0.80;;;;;;;3.74;95.06;100975.53;2010907;29;20029;-62
2022/02/20 02:38:29;;;;;;;3.67;1.07;;;;;;;3.69;95.23;100974.72;2017829;29;20028;-62
2022/02/20 02:39:30;;;;;;;2.83;0.70;;;;;;;3.66;95.11;100977.34;2017925;29;20289;-61
2022/02/20 02:40:31;;;;;;;1.93;0.57;;;;;;;3.74;96.15;100975.53;2010834;29;20436;-61
2022/02/20 02:41:31;;;;;;;2.03;0.57;;;;;;;3.76;97.18;100963.44;2010846;29;20030;-60
2022/02/20 02:42:31;;;;;;;6.67;0.80;;;;;;;3.65;96.42;100971.31;2010838;29;20028;-62
2022/02/20 02:43:36;;;;;;;3.83;0.60;;;;;;;3.55;96.38;100974.88;2010764;29;20085;-61
2022/02/20 02:44:37;;;;;;;8.38;1.48;;;;;;;3.58;96.34;100977.41;2010800;29;20457;-61
2022/02/20 02:45:37;;;;;;;4.27;1.90;;;;;;;3.53;96.27;100962.00;2010815;29;20022;-61
2022/02/20 02:46:37;;;;;;;7.53;1.10;;;;;;;3.52;96.11;100965.44;2010772;29;20060;-62
2022/02/20 02:47:37;;;;;;;5.37;0.67;;;;;;;3.54;96.07;100966.28;2010714;29;20045;-61
2022/02/20 02:48:48;;;;;;;3.90;0.57;;;;;;;3.59;96.35;100974.81;2010862;29;20464;-61
2022/02/20 02:49:48;;;;;;;10.18;2.28;;;;;;;3.58;96.36;100977.41;2010730;29;20021;-61
2022/02/20 02:50:50;;;;;;;6.13;1.30;;;;;;;3.56;96.13;100982.59;2010846;29;20033;-62
2022/02/20 02:51:50;;;;;;;;;;;;;;;3.60;96.60;100973.94;2011176;29;20120;-61
2022/02/20 02:52:50;;;;;;;4.20;0.63;;;;;;;3.58;96.42;100970.53;2010820;29;19916;-61
2022/02/20 02:53:50;;;;;;;7.90;2.20;;;;;;;3.58;96.32;100969.69;2017728;29;20040;-62
2022/02/20 02:54:51;;;;;;;2.87;0.77;;;;;;;3.56;96.28;100961.94;2017872;29;20446;-61
2022/02/20 02:55:52;;;;;;;4.50;0.70;;;;;;;3.52;96.19;100960.28;2010767;29;20029;-61
2022/02/20 02:56:52;;;;;;;7.03;2.22;;;;;;;3.47;96.19;100956.91;2010728;29;20033;-62
2022/02/20 02:57:52;;;;;;;6.67;0.97;;;;;;;3.43;96.64;100963.84;2010049;29;20391;-62
2022/02/20 02:58:53;;;;;;;3.53;1.27;;;;;;;3.43;96.73;100962.97;2010090;29;20029;-62
2022/02/20 02:59:53;;;;;;;2.57;0.67;;;;;;;3.43;97.27;100960.38;2017762;29;20032;-62
2022/02/20 03:00:55;;;;;;;5.40;1.03;;;;;;;3.42;97.21;100958.69;2017830;29;20029;-62
2022/02/20 03:02:01;;;;;;;5.80;0.80;;;;;;;3.43;97.29;100955.22;2010784;29;20033;-61
2022/02/20 03:03:01;;;;;;;4.00;1.00;;;;;;;3.43;97.51;100968.13;2017784;29;20051;-62
2022/02/20 03:04:01;;;;;;;3.63;1.03;;;;;;;3.41;97.42;100957.81;2017848;29;20037;-62
2022/02/20 03:05:03;;;;;;;5.20;1.30;;;;;;;3.38;97.32;100951.84;2010807;29;20515;-61
2022/02/20 03:06:08;;;;;;;4.05;1.83;;;;;;;3.34;97.50;100953.59;2017718;29;20073;-62
2022/02/20 03:07:09;;;;;;;3.83;1.08;;;;;;;3.29;97.42;100961.38;2017416;29;20072;-62
2022/02/20 03:08:10;;;;;;;7.07;1.35;;;;;;;3.29;97.80;100963.94;2017745;29;20115;-62
2022/02/20 03:09:10;;;;;;;6.20;1.27;;;;;;;3.27;98.18;100970.88;2017873;29;20403;-62
2022/02/20 03:10:10;;;;;;;5.50;1.37;;;;;;;3.23;97.77;100964.03;2010751;29;20092;-61
2022/02/20 03:11:11;;;;;;;3.83;1.37;;;;;;;3.17;97.77;100957.19;2010685;29;20034;-62
2022/02/20 03:12:11;;;;;;;5.47;1.25;;;;;;;3.09;98.31;100959.84;2010698;29;20025;-61
2022/02/20 03:13:12;;;;;;;4.90;1.57;;;;;;;3.04;98.30;100964.19;2010625;29;20033;-62
2022/02/20 03:14:12;;;;;;;6.23;1.53;;;;;;;3.01;98.71;100969.38;2010709;29;20029;-62
2022/02/20 03:15:13;;;;;;;7.10;1.63;;;;;;;2.97;99.01;100962.53;2017654;29;20033;-62
2022/02/20 03:16:13;;;;;;;4.70;1.37;;;;;;;2.96;99.57;100972.00;2009755;29;20029;-62
2022/02/20 03:17:13;;;;;;;6.90;1.60;;;;;;;2.96;99.52;100968.56;2010096;29;20026;-62
2022/02/20 03:18:13;;;;;;;8.30;1.90;;;;;;;2.93;99.30;100963.44;2010577;29;20078;-62
2022/02/20 03:19:14;;;;;;;6.53;1.67;;;;;;;2.93;99.93;100964.31;2010638;29;20037;-62
2022/02/20 03:20:14;;;;;;;5.63;1.80;;;;;;;2.91;99.58;100967.75;2010635;29;20029;-62
2022/02/20 03:21:14;;;;;;;8.93;2.17;;;;;;;2.86;99.80;100962.63;2010613;29;20199;-62
2022/02/20 03:22:15;;;;;;;3.03;1.90;;;;;;;2.86;100.00;100956.59;2010551;29;20045;-62
2022/02/20 03:23:16;;;;;;;7.65;2.30;;;;;;;2.83;99.70;100954.91;2010542;29;20349;-62
2022/02/20 03:24:16;;;;;;;5.35;2.15;;;;;;;2.79;99.96;100959.25;2010583;29;20104;-62
2022/02/20 03:25:17;;;;;;;8.40;2.30;;;;;;;2.76;100.00;100964.44;2010674;29;20033;-61
2022/02/20 03:26:17;;;;;;;4.40;2.27;;;;;;;2.77;100.00;100957.56;2010525;29;20061;-61
2022/02/20 03:27:17;;;;;;;5.03;3.03;;;;;;;2.77;100.00;100955.81;2010582;29;20029;-61
2022/02/20 03:28:19;;;;;;;5.97;2.25;;;;;;;2.80;99.66;100960.09;2017566;29;20140;-62
2022/02/20 03:29:19;;;;;;;7.47;3.45;;;;;;;2.76;99.75;100954.13;2017655;29;20037;-61
2022/02/20 03:30:19;;;;;;;8.30;2.97;;;;;;;2.71;99.16;100945.59;2010589;29;20492;-62
2022/02/20 03:31:20;;;;;;;8.07;3.17;;;;;;;2.68;99.80;100953.31;2017522;29;20033;-62
2022/02/20 03:32:20;;;;;;;6.63;2.57;;;;;;;2.65;99.73;100945.63;2009883;29;20030;-62
2022/02/20 03:33:21;;;;;;;4.57;2.33;;;;;;;2.64;99.81;100943.91;2002230;29;20468;-62
2022/02/20 03:34:21;;;;;;;6.97;2.63;;;;;;;2.61;100.00;100943.94;2002299;29;20034;-61
2022/02/20 03:35:22;;;;;;;9.17;3.50;;;;;;;2.63;100.00;100937.06;2009963;29;20518;-61
2022/02/20 03:36:23;;;;;;;6.95;3.33;;;;;;;2.62;99.83;100932.75;2009886;29;20021;-61
2022/02/20 03:37:23;;;;;;;9.17;4.80;;;;;;;2.59;99.94;100931.06;2009881;29;20041;-61
2022/02/20 03:38:23;;;;;;;7.90;3.33;;;;;;;2.57;99.83;100932.81;2017487;29;20037;-61
2022/02/20 03:39:23;;;;;;;4.90;3.60;;;;;;;2.53;100.00;100920.81;2017644;29;20064;-62
2022/02/20 03:40:24;;;;;;;6.13;3.30;;;;;;;2.50;100.00;100921.66;2010565;29;20034;-62
2022/02/20 03:41:24;;;;;;;5.53;2.60;;;;;;;2.50;100.00;100916.50;2010456;29;20492;-62
2022/02/20 03:42:25;;;;;;;6.77;3.80;;;;;;;2.51;100.00;100913.09;2009838;29;20030;-61
2022/02/20 03:43:25;;;;;;;6.10;3.07;;;;;;;2.50;100.00;100906.22;2009876;29;20074;-61
2022/02/20 03:44:25;;;;;;;9.00;4.10;;;;;;;2.51;100.00;100907.94;2010567;29;20057;-61
2022/02/20 03:45:30;;;;;;;5.37;3.07;;;;;;;2.51;100.00;100907.94;2010557;29;20104;-62
2022/02/20 03:46:30;;;;;;;9.30;4.57;;;;;;;2.49;100.00;100909.66;2010452;29;20021;-60
2022/02/20 03:47:30;;;;;;;7.53;4.07;;;;;;;2.48;100.00;100907.97;2010282;29;20535;-61
2022/02/20 03:48:30;;;;;;;7.10;3.57;;;;;;;2.49;100.00;100909.66;2010537;29;20032;-61
2022/02/20 03:49:32;;;;;;;5.37;3.50;;;;;;;2.50;100.00;100906.22;2010450;29;20317;-60
2022/02/20 03:50:32;;;;;;;8.85;4.00;;;;;;;2.50;100.00;100903.63;2010466;29;20024;-60
2022/02/20 03:51:33;;;;;;;7.23;4.53;;;;;;;2.50;100.00;100906.22;2010470;29;20364;-61
2022/02/20 03:52:33;;;;;;;6.63;4.70;;;;;;;2.49;100.00;100901.09;2017438;29;20021;-60
2022/02/20 03:53:33;;;;;;;6.25;3.47;;;;;;;2.50;100.00;100903.63;2017320;29;20029;-60
2022/02/20 03:54:34;;;;;;;9.77;4.17;;;;;;;2.52;100.00;100903.63;2017608;29;20048;-60
2022/02/20 03:55:34;;;;;;;10.20;4.00;;;;;;;2.54;100.00;100894.19;2010520;29;20072;-60
2022/02/20 03:56:34;;;;;;;10.07;3.93;;;;;;;2.56;100.00;100903.59;2010504;29;20082;-62
2022/02/20 03:57:36;;;;;;;8.63;3.90;;;;;;;2.56;100.00;100910.47;2010454;29;20056;-61
2022/02/20 03:58:37;;;;;;;7.78;4.30;;;;;;;2.56;100.00;100901.03;2009830;29;20026;-60
2022/02/20 03:59:37;;;;;;;9.60;3.87;;;;;;;2.59;100.00;100899.31;2009808;29;20029;-61
2022/02/20 04:00:37;;;;;;;9.47;3.83;;;;;;;2.60;100.00;100903.56;2017471;29;20032;-61
2022/02/20 04:01:38;;;;;;;5.83;3.97;;;;;;;2.59;100.00;100899.31;2010499;29;20030;-61
2022/02/20 04:02:39;;;;;;;7.67;4.30;;;;;;;2.58;100.00;100898.44;2010455;29;20021;-61
2022/02/20 04:03:41;;;;;;;6.50;4.20;;;;;;;2.57;100.00;100897.56;2010324;29;20026;-62
2022/02/20 04:04:41;;;;;;;7.43;4.25;;;;;;;2.60;100.00;100899.25;2010469;29;20031;-62
2022/02/20 04:05:42;;;;;;;9.83;3.40;;;;;;;2.63;100.00;100896.66;2017387;29;20525;-61
2022/02/20 04:06:42;;;;;;;7.23;4.33;;;;;;;2.64;100.00;100895.78;2017541;29;20045;-61
2022/02/20 04:07:42;;;;;;;8.07;4.27;;;;;;;2.68;100.00;100894.06;2010432;29;20037;-61
2022/02/20 04:08:43;;;;;;;6.93;3.90;;;;;;;2.69;100.00;100895.75;2010395;29;20113;-62
2022/02/20 04:09:43;;;;;;;8.27;4.50;;;;;;;2.70;100.00;100892.31;2010358;29;20033;-62
2022/02/20 04:10:43;;;;;;;9.87;4.27;;;;;;;2.70;100.00;100893.16;2010450;29;20030;-62
2022/02/20 04:11:44;;;;;;;9.93;4.37;;;;;;;2.74;99.82;100899.13;2010322;29;20742;-61
2022/02/20 04:12:44;;;;;;;7.13;4.30;;;;;;;2.77;100.00;100887.97;2010397;29;20069;-61
2022/02/20 04:13:44;;;;;;;10.10;4.10;;;;;;;2.79;100.00;100892.25;2010299;29;20158;-62
2022/02/20 04:14:45;;;;;;;9.17;4.57;;;;;;;2.81;99.73;100890.50;2010397;29;20477;-61
2022/02/20 04:15:45;;;;;;;5.77;4.20;;;;;;;2.81;99.38;100887.91;2010375;29;20082;-61
2022/02/20 04:16:45;;;;;;;8.53;4.80;;;;;;;2.85;99.70;100891.34;2017370;29;20057;-62
2022/02/20 04:17:47;;;;;;;6.43;3.63;;;;;;;2.86;99.82;100889.59;2009690;29;20077;-61
2022/02/20 04:18:49;;;;;;;9.05;4.40;;;;;;;2.86;99.42;100881.84;2009832;29;20404;-62
2022/02/20 04:19:49;;;;;;;8.85;4.78;;;;;;;2.86;99.51;100887.00;2017259;29;20049;-62
2022/02/20 04:20:50;;;;;;;8.73;4.03;;;;;;;2.88;99.67;100885.28;2010385;29;20045;-62
2022/02/20 04:21:50;;;;;;;8.73;4.83;;;;;;;2.88;99.12;100883.56;2010426;29;20093;-62
2022/02/20 04:22:50;;;;;;;9.47;4.23;;;;;;;2.88;99.51;100886.16;2010408;29;20297;-62
2022/02/20 04:23:50;;;;;;;9.03;4.70;;;;;;;2.90;99.56;100888.69;2010193;29;20033;-61
2022/02/20 04:24:50;;;;;;;9.80;6.03;;;;;;;2.92;99.61;100874.06;2010246;29;20146;-61
2022/02/20 04:25:51;;;;;;;5.50;4.70;;;;;;;2.94;99.06;100880.91;2010304;29;20037;-61
2022/02/20 04:26:51;;;;;;;6.60;4.13;;;;;;;2.95;99.53;100876.63;2017321;29;20081;-61
2022/02/20 04:27:51;;;;;;;8.00;4.43;;;;;;;2.95;98.99;100872.31;2018022;29;20570;-61
2022/02/20 04:28:52;;;;;;;9.63;5.10;;;;;;;2.96;98.99;100873.16;2011806;29;20124;-61
2022/02/20 04:29:52;;;;;;;11.38;5.05;;;;;;;2.96;99.26;100878.31;2011815;29;20037;-61
2022/02/20 04:30:52;;;;;;;8.77;4.60;;;;;;;2.95;99.59;100861.16;2011783;29;20162;-61
2022/02/20 04:31:53;;;;;;;9.53;4.30;;;;;;;2.96;99.51;100857.69;2011084;29;20318;-61
2022/02/20 04:32:53;;;;;;;13.60;4.50;;;;;;;2.97;99.18;100859.41;2011239;29;20533;-61
2022/02/20 04:33:53;;;;;;;7.40;4.30;;;;;;;2.96;99.41;100847.38;2011647;29;20021;-61
2022/02/20 04:34:53;;;;;;;7.27;4.80;;;;;;;3.00;99.63;100849.06;2011745;29;20037;-62
2022/02/20 04:35:54;;;;;;;7.63;4.73;;;;;;;3.00;99.51;100848.19;2011682;29;20045;-61
2022/02/20 04:36:54;;;;;;;8.43;4.30;;;;;;;3.00;99.26;100843.03;2011731;29;20049;-62
2022/02/20 04:37:54;;;;;;;8.40;3.87;;;;;;;3.00;100.00;100841.31;2011774;29;20037;-61
2022/02/20 04:38:54;;;;;;;5.27;3.80;;;;;;;3.01;99.66;100837.88;2011743;29;20041;-61
2022/02/20 04:39:55;;;;;;;8.87;4.47;;;;;;;3.02;99.87;100837.03;2011730;29;20085;-61
2022/02/20 04:40:55;;;;;;;9.20;5.40;;;;;;;3.04;100.00;100847.28;2011735;29;20072;-61
2022/02/20 04:41:58;;;;;;;6.83;4.60;;;;;;;3.07;100.00;100839.53;2011712;29;20041;-61
2022/02/20 04:42:58;;;;;;;10.15;4.60;;;;;;;3.12;100.00;100845.50;2018687;29;20032;-61
2022/02/20 04:43:58;;;;;;;7.43;4.50;;;;;;;3.15;100.00;100831.72;2011007;29;20479;-61
2022/02/20 04:44:59;;;;;;;9.00;4.73;;;;;;;3.17;99.99;100837.69;2011129;29;20484;-60